createdAt,value
2019-05-29T00:00:42.420Z,10.78
2019-05-29T00:03:14.797Z,11.50
2019-05-29T00:05:46.721Z,10.18
2019-05-29T00:08:18.589Z,9.63
2019-05-29T00:10:50.447Z,9.65
2019-05-29T00:13:22.445Z,10.53
2019-05-29T00:15:54.401Z,10.70
2019-05-29T00:18:26.372Z,10.40
2019-05-29T00:20:58.190Z,9.93
2019-05-29T00:23:30.311Z,9.83
2019-05-29T00:26:02.117Z,10.65
2019-05-29T00:28:33.996Z,10.23
2019-05-29T00:31:05.927Z,8.78
2019-05-29T00:33:37.875Z,9.95
2019-05-29T00:36:10.363Z,9.55
2019-05-29T00:38:42.296Z,9.88
2019-05-29T00:41:15.085Z,9.40
2019-05-29T00:43:47.348Z,9.80
2019-05-29T00:46:19.439Z,10.53
2019-05-29T00:48:51.471Z,9.65
2019-05-29T00:51:23.364Z,9.73
2019-05-29T00:53:55.428Z,10.30
2019-05-29T00:56:27.251Z,9.38
2019-05-29T00:58:59.290Z,9.48
2019-05-29T01:01:31.144Z,9.98
2019-05-29T01:04:03.152Z,9.10
2019-05-29T01:06:34.941Z,9.33
2019-05-29T01:09:10.355Z,9.25
2019-05-29T01:11:42.077Z,6.97
2019-05-29T01:14:15.145Z,8.53
2019-05-29T01:16:47.567Z,9.33
2019-05-29T01:19:25.480Z,10.70
2019-05-29T01:21:58.551Z,10.30
2019-05-29T01:24:30.470Z,10.18
2019-05-29T01:27:02.235Z,9.90
2019-05-29T01:29:34.058Z,8.30
2019-05-29T01:32:06.093Z,9.33
2019-05-29T01:34:37.850Z,9.95
2019-05-29T01:37:09.709Z,8.67
2019-05-29T01:39:41.493Z,10.00
2019-05-29T01:42:13.223Z,10.18
2019-05-29T01:44:45.224Z,10.80
2019-05-29T01:47:17.459Z,7.83
2019-05-29T01:49:49.768Z,8.83
2019-05-29T01:52:21.912Z,8.45
2019-05-29T01:54:54.099Z,6.72
2019-05-29T01:57:25.814Z,7.03
2019-05-29T01:59:57.923Z,6.03
2019-05-29T02:02:29.657Z,6.55
2019-05-29T02:05:01.557Z,5.40
2019-05-29T02:07:33.380Z,4.33
2019-05-29T02:10:05.968Z,4.20
2019-05-29T02:12:37.782Z,4.37
2019-05-29T02:15:22.869Z,4.37
2019-05-29T02:17:44.167Z,4.03
2019-05-29T02:20:19.372Z,3.72
2019-05-29T02:22:51.200Z,3.57
2019-05-29T02:25:24.494Z,4.08
2019-05-29T02:27:56.228Z,3.93
2019-05-29T02:30:30.673Z,3.73
2019-05-29T02:33:01.788Z,3.07
2019-05-29T02:35:34.027Z,3.47
2019-05-29T02:38:05.825Z,3.80
2019-05-29T02:40:37.739Z,3.70
2019-05-29T02:43:09.477Z,3.20
2019-05-29T02:45:53.555Z,3.27
2019-05-29T02:48:15.117Z,2.97
2019-05-29T02:50:47.335Z,2.93
2019-05-29T02:53:20.035Z,3.10
2019-05-29T02:55:52.441Z,2.90
2019-05-29T02:58:25.839Z,2.57
2019-05-29T03:00:58.375Z,2.70
2019-05-29T03:03:37.963Z,2.90
2019-05-29T03:06:04.652Z,1.70
2019-05-29T03:08:36.394Z,2.20
2019-05-29T03:11:08.476Z,1.83
2019-05-29T03:13:40.374Z,2.77
2019-05-29T03:16:13.266Z,2.07
2019-05-29T03:18:45.677Z,2.43
2019-05-29T03:21:17.544Z,2.20
2019-05-29T03:23:49.317Z,2.20
2019-05-29T03:26:24.641Z,2.53
2019-05-29T03:28:54.832Z,2.17
2019-05-29T03:31:30.027Z,2.00
2019-05-29T03:34:00.170Z,2.53
2019-05-29T03:36:39.607Z,2.23
2019-05-29T03:39:06.854Z,2.00
2019-05-29T03:41:39.130Z,2.60
2019-05-29T03:44:11.532Z,2.23
2019-05-29T03:46:45.876Z,1.90
2019-05-29T03:49:17.477Z,2.20
2019-05-29T03:51:49.643Z,1.60
2019-05-29T03:54:21.460Z,2.00
2019-05-29T03:56:53.334Z,1.57
2019-05-29T03:59:26.726Z,1.77
2019-05-29T04:01:59.286Z,1.43
2019-05-29T04:04:31.813Z,1.60
2019-05-29T04:07:04.860Z,1.30
2019-05-29T04:09:37.370Z,1.50
2019-05-29T04:12:09.945Z,1.10
2019-05-29T04:14:42.209Z,1.27
2019-05-29T04:17:16.733Z,1.17
2019-05-29T04:19:48.884Z,0.60
2019-05-29T04:22:28.195Z,0.70
2019-05-29T04:25:04.331Z,0.50
2019-05-29T04:27:38.927Z,0.60
2019-05-29T04:30:11.453Z,0.50
2019-05-29T04:32:43.280Z,0.50
2019-05-29T04:35:15.237Z,0.70
2019-05-29T04:37:47.451Z,0.60
2019-05-29T04:40:19.296Z,0.50
2019-05-29T04:42:51.245Z,0.60
2019-05-29T04:45:23.982Z,0.70
2019-05-29T04:47:55.825Z,0.67
2019-05-29T04:50:29.020Z,0.60
2019-05-29T04:53:01.330Z,0.97
2019-05-29T04:55:33.170Z,1.10
2019-05-29T04:58:05.030Z,0.70
2019-05-29T05:00:37.264Z,0.87
2019-05-29T05:03:09.408Z,0.70
2019-05-29T05:05:41.460Z,0.70
2019-05-29T05:08:13.425Z,0.90
2019-05-29T05:10:46.067Z,0.63
2019-05-29T05:13:18.067Z,0.70
2019-05-29T05:15:52.986Z,0.90
2019-05-29T05:18:25.071Z,1.10
2019-05-29T05:20:56.940Z,0.90
2019-05-29T05:23:30.018Z,0.73
2019-05-29T05:26:01.964Z,1.00
2019-05-29T05:28:34.385Z,1.10
2019-05-29T05:31:06.338Z,1.20
2019-05-29T05:33:38.655Z,1.23
2019-05-29T05:36:10.981Z,1.47
2019-05-29T05:38:43.018Z,1.23
2019-05-29T05:41:14.872Z,1.40
2019-05-29T05:43:46.662Z,1.70
2019-05-29T05:46:18.451Z,1.70
2019-05-29T05:48:50.417Z,1.67
2019-05-29T05:51:22.506Z,1.40
2019-05-29T05:53:54.939Z,1.73
2019-05-29T05:56:26.814Z,1.60
2019-05-29T05:58:58.959Z,1.43
2019-05-29T06:01:31.718Z,1.63
2019-05-29T06:04:03.996Z,1.30
2019-05-29T06:06:36.233Z,1.93
2019-05-29T06:09:09.671Z,1.50
2019-05-29T06:11:42.545Z,1.20
2019-05-29T06:14:14.824Z,1.50
2019-05-29T06:16:47.758Z,1.40
2019-05-29T06:19:19.887Z,1.67
2019-05-29T06:21:52.033Z,1.60
2019-05-29T06:24:24.256Z,1.73
2019-05-29T06:26:56.177Z,1.73
2019-05-29T06:29:28.346Z,1.93
2019-05-29T06:32:00.165Z,2.03
2019-05-29T06:34:33.494Z,1.80
2019-05-29T06:37:06.070Z,1.80
2019-05-29T06:39:37.915Z,1.80
2019-05-29T06:42:10.222Z,1.90
2019-05-29T06:44:44.861Z,1.90
2019-05-29T06:47:16.337Z,1.87
2019-05-29T06:49:48.882Z,1.80
2019-05-29T06:52:21.946Z,1.90
2019-05-29T06:54:54.326Z,1.93
2019-05-29T06:57:26.313Z,1.77
2019-05-29T07:00:00.033Z,2.10
2019-05-29T07:02:32.763Z,2.27
2019-05-29T07:05:05.506Z,1.80
2019-05-29T07:07:38.376Z,1.90
2019-05-29T07:10:11.148Z,1.77
2019-05-29T07:12:44.513Z,1.40
2019-05-29T07:15:18.513Z,1.90
2019-05-29T07:17:50.612Z,1.60
2019-05-29T07:20:22.666Z,1.90
2019-05-29T07:22:54.802Z,1.30
2019-05-29T07:25:26.905Z,1.10
2019-05-29T07:27:58.715Z,1.33
2019-05-29T07:30:32.673Z,1.77
2019-05-29T07:33:04.536Z,2.10
2019-05-29T07:39:55.039Z,2.17
2019-05-29T07:42:26.804Z,2.27
2019-05-29T07:44:58.885Z,1.97
2019-05-29T07:47:30.721Z,1.60
2019-05-29T07:50:02.814Z,1.37
2019-05-29T07:52:35.991Z,1.23
2019-05-29T07:55:08.931Z,1.40
2019-05-29T07:57:40.970Z,1.20
2019-05-29T08:00:15.129Z,1.03
2019-05-29T08:02:47.497Z,0.97
2019-05-29T08:05:19.629Z,0.90
2019-05-29T08:07:51.413Z,0.97
2019-05-29T08:10:23.851Z,0.90
2019-05-29T08:12:56.120Z,0.83
2019-05-29T08:15:28.128Z,0.70
2019-05-29T08:17:59.948Z,0.90
2019-05-29T08:20:31.821Z,0.80
2019-05-29T08:23:03.640Z,0.70
2019-05-29T08:25:36.045Z,0.80
2019-05-29T08:28:07.928Z,1.00
2019-05-29T08:30:41.155Z,0.70
2019-05-29T08:33:13.523Z,0.70
2019-05-29T08:35:45.472Z,0.63
2019-05-29T08:38:17.308Z,1.03
2019-05-29T08:40:49.599Z,0.93
2019-05-29T08:43:21.440Z,0.80
2019-05-29T08:45:53.351Z,0.83
2019-05-29T08:48:26.188Z,1.00
2019-05-29T08:50:58.041Z,1.00
2019-05-29T08:53:29.973Z,0.57
2019-05-29T08:56:02.229Z,0.80
2019-05-29T08:58:37.137Z,0.80
2019-05-29T09:01:07.714Z,0.70
2019-05-29T09:03:39.672Z,1.20
2019-05-29T09:06:13.747Z,0.83
2019-05-29T09:08:46.674Z,0.73
2019-05-29T09:11:19.982Z,1.20
2019-05-29T09:13:53.077Z,1.00
2019-05-29T09:16:25.131Z,0.80
2019-05-29T09:18:57.005Z,1.00
2019-05-29T09:21:29.194Z,1.00
2019-05-29T09:24:00.992Z,1.23
2019-05-29T09:26:33.035Z,1.20
2019-05-29T09:29:04.810Z,1.00
2019-05-29T09:31:36.658Z,1.00
2019-05-29T09:34:08.443Z,1.00
2019-05-29T09:36:40.636Z,1.27
2019-05-29T09:39:12.787Z,0.80
2019-05-29T09:41:44.983Z,1.00
2019-05-29T09:44:32.919Z,1.20
2019-05-29T09:46:50.655Z,0.90
2019-05-29T09:49:23.870Z,1.03
2019-05-29T09:51:57.917Z,0.90
2019-05-29T09:54:29.922Z,0.67
2019-05-29T09:57:02.846Z,0.90
2019-05-29T09:59:34.869Z,1.07
2019-05-29T10:02:08.816Z,1.20
2019-05-29T10:04:40.703Z,1.00
2019-05-29T10:07:12.819Z,1.60
2019-05-29T10:09:44.608Z,1.30
2019-05-29T10:12:16.769Z,1.40
2019-05-29T10:14:51.334Z,1.40
2019-05-29T10:17:22.154Z,2.17
2019-05-29T10:19:55.367Z,1.57
2019-05-29T10:22:27.882Z,1.80
2019-05-29T10:25:00.052Z,1.40
2019-05-29T10:27:33.025Z,1.60
2019-05-29T10:30:05.296Z,1.30
2019-05-29T10:32:37.253Z,1.80
2019-05-29T10:35:09.087Z,1.20
2019-05-29T10:37:42.585Z,1.70
2019-05-29T10:40:15.581Z,1.43
2019-05-29T10:42:49.013Z,1.23
2019-05-29T10:45:21.423Z,1.57
2019-05-29T10:47:54.104Z,1.30
2019-05-29T10:50:26.007Z,1.87
2019-05-29T10:52:58.097Z,1.50
2019-05-29T10:55:29.924Z,1.43
2019-05-29T10:58:01.986Z,1.63
2019-05-29T11:00:37.982Z,1.40
2019-05-29T11:03:07.795Z,1.57
2019-05-29T11:05:39.547Z,2.87
2019-05-29T11:08:11.643Z,2.40
2019-05-29T11:10:43.406Z,2.70
2019-05-29T11:13:15.869Z,1.40
2019-05-29T11:15:48.563Z,1.63
2019-05-29T11:18:20.719Z,1.53
2019-05-29T11:20:53.456Z,1.30
2019-05-29T11:23:25.429Z,1.60
2019-05-29T11:25:58.199Z,2.03
2019-05-29T11:28:30.507Z,1.50
2019-05-29T11:31:06.175Z,1.70
2019-05-29T11:33:36.077Z,1.53
2019-05-29T11:36:12.585Z,1.53
2019-05-29T11:38:41.648Z,1.60
2019-05-29T11:41:25.901Z,2.57
2019-05-29T11:43:47.843Z,1.20
2019-05-29T11:46:19.653Z,1.30
2019-05-29T11:48:51.544Z,1.65
2019-05-29T11:51:23.894Z,1.50
2019-05-29T11:53:55.977Z,1.95
2019-05-29T11:56:27.939Z,1.72
2019-05-29T11:59:00.237Z,1.25
2019-05-29T12:01:48.979Z,2.10
2019-05-29T12:04:22.986Z,1.80
2019-05-29T12:06:40.449Z,1.40
2019-05-29T12:09:13.222Z,1.20
2019-05-29T12:11:45.047Z,1.60
2019-05-29T12:14:17.158Z,1.67
2019-05-29T12:16:48.930Z,1.50
2019-05-29T12:19:22.091Z,1.50
2019-05-29T12:21:54.449Z,1.30
2019-05-29T12:24:27.327Z,2.10
2019-05-29T12:26:59.120Z,1.50
2019-05-29T12:29:31.153Z,1.37
2019-05-29T12:32:08.146Z,1.42
2019-05-29T12:34:36.729Z,2.02
2019-05-29T12:37:08.607Z,2.52
2019-05-29T12:39:40.634Z,2.37
2019-05-29T12:42:12.425Z,2.70
2019-05-29T12:44:44.607Z,3.08
2019-05-29T12:47:16.361Z,2.60
2019-05-29T12:49:48.255Z,2.40
2019-05-29T12:52:20.053Z,2.70
2019-05-29T12:54:52.234Z,2.10
2019-05-29T12:57:24.042Z,2.35
2019-05-29T12:59:56.251Z,2.20
2019-05-29T13:02:28.026Z,1.50
2019-05-29T13:05:08.381Z,2.25
2019-05-29T13:07:33.554Z,1.85
2019-05-29T13:10:06.565Z,1.95
2019-05-29T13:12:39.531Z,2.42
2019-05-29T13:15:14.070Z,2.42
2019-05-29T13:17:45.956Z,2.35
2019-05-29T13:20:22.036Z,2.40
2019-05-29T13:22:52.285Z,2.70
2019-05-29T13:25:25.723Z,2.02
2019-05-29T13:27:59.407Z,2.20
2019-05-29T13:30:32.225Z,2.52
2019-05-29T13:33:07.392Z,2.47
2019-05-29T13:35:37.899Z,2.87
2019-05-29T13:38:09.933Z,2.55
2019-05-29T13:40:41.870Z,2.72
2019-05-29T13:43:15.810Z,2.05
2019-05-29T13:45:47.686Z,2.10
2019-05-29T13:48:21.333Z,2.10
2019-05-29T13:50:53.309Z,2.15
2019-05-29T13:53:25.121Z,2.65
2019-05-29T13:55:57.745Z,1.95
2019-05-29T13:58:29.629Z,2.37
2019-05-29T14:01:02.477Z,2.50
2019-05-29T14:03:35.351Z,2.22
2019-05-29T14:06:09.356Z,2.25
2019-05-29T14:08:41.095Z,2.85
2019-05-29T14:11:12.989Z,2.37
2019-05-29T14:13:44.928Z,2.65
2019-05-29T14:16:17.181Z,1.95
2019-05-29T14:18:49.110Z,2.35
2019-05-29T14:21:21.003Z,2.72
2019-05-29T14:23:52.910Z,2.75
2019-05-29T14:26:24.863Z,2.58
2019-05-29T14:28:56.662Z,2.60
2019-05-29T14:31:28.965Z,2.58
2019-05-29T14:34:00.962Z,2.47
2019-05-29T14:36:32.994Z,2.15
2019-05-29T14:39:07.603Z,2.60
2019-05-29T14:41:40.137Z,1.42
2019-05-29T14:44:12.124Z,1.30
2019-05-29T14:46:44.267Z,1.20
2019-05-29T14:49:16.039Z,1.27
2019-05-29T14:51:47.907Z,0.98
2019-05-29T14:54:19.705Z,1.40
2019-05-29T14:56:51.605Z,1.50
2019-05-29T14:59:23.458Z,1.62
2019-05-29T15:01:56.012Z,1.42
2019-05-29T15:04:27.825Z,1.45
2019-05-29T15:07:00.043Z,1.52
2019-05-29T15:09:31.838Z,1.35
2019-05-29T15:12:04.037Z,1.30
2019-05-29T15:14:35.905Z,1.30
2019-05-29T15:17:09.041Z,1.35
2019-05-29T15:19:41.052Z,1.30
2019-05-29T15:22:14.145Z,1.50
2019-05-29T15:25:01.505Z,1.30
2019-05-29T15:27:20.250Z,1.15
2019-05-29T15:29:52.045Z,1.22
2019-05-29T15:32:24.377Z,1.35
2019-05-29T15:34:56.182Z,1.20
2019-05-29T15:37:28.109Z,1.27
2019-05-29T15:39:59.936Z,1.20
2019-05-29T15:42:32.174Z,1.20
2019-05-29T15:45:04.096Z,1.05
2019-05-29T15:47:36.580Z,1.30
2019-05-29T15:50:09.199Z,1.47
2019-05-29T15:52:41.288Z,1.10
2019-05-29T15:55:28.422Z,1.30
2019-05-29T15:57:49.024Z,1.20
2019-05-29T16:00:22.024Z,1.22
2019-05-29T16:02:54.602Z,1.30
2019-05-29T16:05:26.394Z,1.05
2019-05-29T16:07:58.282Z,1.40
2019-05-29T16:10:30.110Z,1.30
2019-05-29T16:13:01.925Z,1.15
2019-05-29T16:15:33.758Z,1.00
2019-05-29T16:18:19.021Z,1.40
2019-05-29T16:20:39.294Z,0.88
2019-05-29T16:23:12.534Z,0.93
2019-05-29T16:25:44.723Z,1.17
2019-05-29T16:28:17.274Z,1.00
2019-05-29T16:30:49.312Z,1.27
2019-05-29T16:33:21.653Z,1.32
2019-05-29T16:35:53.682Z,1.57
2019-05-29T16:38:27.030Z,1.27
2019-05-29T16:40:58.883Z,1.40
2019-05-29T16:43:30.841Z,1.17
2019-05-29T16:46:02.746Z,1.60
2019-05-29T16:48:34.966Z,1.30
2019-05-29T16:51:06.780Z,1.20
2019-05-29T16:53:39.841Z,1.07
2019-05-29T16:56:12.719Z,1.15
2019-05-29T16:58:44.631Z,1.20
2019-05-29T17:01:17.387Z,1.37
2019-05-29T17:03:49.679Z,1.27
2019-05-29T17:06:22.452Z,1.25
2019-05-29T17:08:55.595Z,1.20
2019-05-29T17:11:27.408Z,1.15
2019-05-29T17:13:59.268Z,1.00
2019-05-29T17:16:31.146Z,1.10
2019-05-29T17:19:04.470Z,1.25
2019-05-29T17:21:36.395Z,1.10
2019-05-29T17:24:08.496Z,1.22
2019-05-29T17:26:40.522Z,1.37
2019-05-29T17:29:12.878Z,1.40
2019-05-29T17:31:44.840Z,1.70
2019-05-29T17:34:18.939Z,1.40
2019-05-29T17:36:52.689Z,1.35
2019-05-29T17:39:25.193Z,1.10
2019-05-29T17:41:57.368Z,1.07
2019-05-29T17:44:29.270Z,1.42
2019-05-29T17:47:01.191Z,1.30
2019-05-29T17:49:34.767Z,1.25
2019-05-29T17:52:06.937Z,1.85
2019-05-29T17:54:39.029Z,1.00
2019-05-29T17:57:10.937Z,1.10
2019-05-29T17:59:42.814Z,1.57
2019-05-29T18:02:15.967Z,1.25
2019-05-29T18:04:48.413Z,1.47
2019-05-29T18:07:20.614Z,1.30
2019-05-29T18:09:52.630Z,1.55
2019-05-29T18:12:25.096Z,1.40
2019-05-29T18:14:57.546Z,1.37
2019-05-29T18:17:29.487Z,1.45
2019-05-29T18:20:01.526Z,1.35
2019-05-29T18:22:33.436Z,1.67
2019-05-29T18:25:06.815Z,1.40
2019-05-29T18:27:38.583Z,1.70
2019-05-29T18:30:11.824Z,1.60
2019-05-29T18:32:43.770Z,1.30
2019-05-29T18:35:16.914Z,1.30
2019-05-29T18:37:48.827Z,1.50
2019-05-29T18:40:22.302Z,1.25
2019-05-29T18:42:54.509Z,1.53
2019-05-29T18:45:27.744Z,1.40
2019-05-29T18:48:01.469Z,1.70
2019-05-29T18:50:33.556Z,1.57
2019-05-29T18:53:05.479Z,1.20
2019-05-29T18:55:37.406Z,1.40
2019-05-29T18:58:09.238Z,1.37
2019-05-29T19:00:41.362Z,1.60
2019-05-29T19:03:13.122Z,1.57
2019-05-29T19:05:45.686Z,1.93
2019-05-29T19:08:17.888Z,1.30
2019-05-29T19:10:50.226Z,1.40
2019-05-29T19:13:23.446Z,1.77
2019-05-29T19:15:55.872Z,1.40
2019-05-29T19:18:28.273Z,1.20
2019-05-29T19:21:00.179Z,1.33
2019-05-29T19:23:32.960Z,1.00
2019-05-29T19:26:04.915Z,1.13
2019-05-29T19:28:37.215Z,1.20
2019-05-29T19:31:09.148Z,1.10
2019-05-29T19:33:41.028Z,1.00
2019-05-29T19:36:14.663Z,1.30
2019-05-29T19:38:46.502Z,1.20
2019-05-29T19:41:18.310Z,1.30
2019-05-29T19:43:50.144Z,1.23
2019-05-29T19:46:22.043Z,1.50
2019-05-29T19:48:53.918Z,1.47
2019-05-29T19:51:27.267Z,1.30
2019-05-29T19:53:59.301Z,1.20
2019-05-29T19:56:31.733Z,1.17
2019-05-29T19:59:04.052Z,1.17
2019-05-29T20:01:40.236Z,1.20
2019-05-29T20:04:09.546Z,1.30
2019-05-29T20:06:41.414Z,1.20
2019-05-29T20:09:13.254Z,1.33
2019-05-29T20:11:45.331Z,3.00
2019-05-29T20:14:17.370Z,1.17
2019-05-29T20:16:49.478Z,1.10
2019-05-29T20:19:21.304Z,1.50
2019-05-29T20:21:53.622Z,1.30
2019-05-29T20:24:26.718Z,1.40
2019-05-29T20:26:59.913Z,1.30
2019-05-29T20:29:32.399Z,1.30
2019-05-29T20:32:04.749Z,1.30
2019-05-29T20:34:36.916Z,1.30
2019-05-29T20:37:09.268Z,1.27
2019-05-29T20:39:41.018Z,1.47
2019-05-29T20:42:13.108Z,1.70
2019-05-29T20:44:44.880Z,1.43
2019-05-29T20:47:16.943Z,1.40
2019-05-29T20:49:48.753Z,1.40
2019-05-29T20:52:21.271Z,1.37
2019-05-29T20:54:53.236Z,1.57
2019-05-29T20:57:26.933Z,1.53
2019-05-29T20:59:59.032Z,1.53
2019-05-29T21:02:32.005Z,1.40
2019-05-29T21:05:04.394Z,2.23
2019-05-29T21:07:36.709Z,2.07
2019-05-29T21:10:10.770Z,1.73
2019-05-29T21:12:46.123Z,1.53
2019-05-29T21:15:18.318Z,1.47
2019-05-29T21:17:50.426Z,1.73
2019-05-29T21:20:22.328Z,1.70
2019-05-29T21:22:54.208Z,1.50
2019-05-29T21:25:26.916Z,1.70
2019-05-29T21:27:58.763Z,1.43
2019-05-29T21:30:30.541Z,1.60
2019-05-29T21:33:02.626Z,1.40
2019-05-29T21:35:34.454Z,1.40
2019-05-29T21:38:06.688Z,1.60
2019-05-29T21:40:38.518Z,1.53
2019-05-29T21:43:10.580Z,1.60
2019-05-29T21:45:43.119Z,1.47
2019-05-29T21:48:15.082Z,1.63
2019-05-29T21:50:47.406Z,1.43
2019-05-29T21:53:19.959Z,1.70
2019-05-29T21:55:51.768Z,1.50
2019-05-29T21:58:25.347Z,1.80
2019-05-29T22:00:57.401Z,1.87
2019-05-29T22:03:29.792Z,2.17
2019-05-29T22:06:01.554Z,1.90
2019-05-29T22:08:33.729Z,1.50
2019-05-29T22:11:05.496Z,2.20
2019-05-29T22:13:37.629Z,1.83
2019-05-29T22:16:09.383Z,1.40
2019-05-29T22:18:41.450Z,1.53
2019-05-29T22:21:13.231Z,2.50
2019-05-29T22:23:45.474Z,2.83
2019-05-29T22:26:17.606Z,2.60
2019-05-29T22:28:51.137Z,3.50
2019-05-29T22:31:23.266Z,3.13
2019-05-29T22:33:57.479Z,4.27
2019-05-29T22:36:29.360Z,3.37
2019-05-29T22:39:01.841Z,4.27
2019-05-29T22:41:35.447Z,2.93
2019-05-29T22:44:07.664Z,3.00
2019-05-29T22:46:40.573Z,3.67
2019-05-29T22:49:12.588Z,3.10
2019-05-29T22:51:45.523Z,3.13
2019-05-29T22:54:17.700Z,3.50
2019-05-29T22:56:49.478Z,3.00
2019-05-29T22:59:31.437Z,2.97
2019-05-29T23:01:56.292Z,3.13
2019-05-29T23:04:28.489Z,2.90
2019-05-29T23:07:00.473Z,3.17
2019-05-29T23:09:33.900Z,3.43
2019-05-29T23:12:05.858Z,2.90
2019-05-29T23:14:37.716Z,2.97
2019-05-29T23:17:09.467Z,2.70
2019-05-29T23:19:41.906Z,3.10
2019-05-29T23:22:13.646Z,3.47
2019-05-29T23:24:45.761Z,2.90
2019-05-29T23:27:17.491Z,2.80
2019-05-29T23:29:49.673Z,2.73
2019-05-29T23:32:21.498Z,2.60
2019-05-29T23:34:54.904Z,3.07
2019-05-29T23:37:26.835Z,2.60
2019-05-29T23:39:59.367Z,3.67
2019-05-29T23:42:31.173Z,3.73
2019-05-29T23:45:03.779Z,3.67
2019-05-29T23:47:35.837Z,3.30
2019-05-29T23:50:08.460Z,3.67
2019-05-29T23:52:40.333Z,3.30
2019-05-29T23:55:12.715Z,3.00
2019-05-29T23:57:44.548Z,2.97
